Time;durP1;ratioP1;P1;durP2;ratioP2;P2;SDS_P1;SDS_P2;PMS_P1;PMS_P2;Temp;Humidity;BMP_temperature;BMP_pressure;BME280_temperature;BME280_humidity;BME280_pressure;Samples;Min_cycle;Max_cycle;Signal;HPM_P1;HPM_P2
2022/12/20 00:00:46;;;;;;;92.40;28.58;;;;;;;;;;5034025;28;20036;-79
2022/12/20 00:03:11;;;;;;;72.90;25.17;;;;;;;;;;5033781;28;20044;-80
2022/12/20 00:05:38;;;;;;;70.65;24.45;;;;;;;;;;5016702;28;20048;-81
2022/12/20 00:08:04;;;;;;;84.25;27.02;;;;;;;;;;5016249;28;20045;-80
2022/12/20 00:10:30;;;;;;;63.63;24.42;;;;;;;;;;5034092;28;20114;-81
2022/12/20 00:12:55;;;;;;;80.38;28.50;;;;;;;;;;5016276;28;20033;-80
2022/12/20 00:15:20;;;;;;;85.35;28.30;;;;;;;;;;5033913;28;20120;-80
2022/12/20 00:17:46;;;;;;;64.43;21.77;;;;;;;;;;5013899;28;20124;-80
2022/12/20 00:20:11;;;;;;;59.13;21.17;;;;;;;;;;5019530;28;20068;-80
2022/12/20 00:22:37;;;;;;;85.85;31.17;;;;;;;;;;5017070;28;20034;-81
2022/12/20 00:25:03;;;;;;;85.78;31.38;;;;;;;;;;5018229;28;20503;-79
2022/12/20 00:27:29;;;;;;;74.63;24.30;;;;;;;;;;5018217;28;20034;-80
2022/12/20 00:29:54;;;;;;;66.93;24.55;;;;;;;;;;5000565;28;20034;-79
2022/12/20 00:32:19;;;;;;;61.50;21.52;;;;;;;;;;4984044;28;20030;-80
2022/12/20 00:34:45;;;;;;;76.80;25.63;;;;;;;;;;5017946;28;20030;-80
2022/12/20 00:37:11;;;;;;;82.97;30.35;;;;;;;;;;4984043;28;20029;-80
2022/12/20 00:39:36;;;;;;;70.88;24.65;;;;;;;;;;5017463;28;20022;-81
2022/12/20 00:42:01;;;;;;;82.35;28.88;;;;;;;;;;4999214;28;20487;-80
2022/12/20 00:44:27;;;;;;;62.63;19.15;;;;;;;;;;5017727;28;20336;-79
2022/12/20 00:46:52;;;;;;;86.72;32.38;;;;;;;;;;5000489;28;20092;-80
2022/12/20 00:49:18;;;;;;;89.15;31.60;;;;;;;;;;5000007;28;20033;-80
2022/12/20 00:51:43;;;;;;;75.35;27.23;;;;;;;;;;5016201;28;20053;-80
2022/12/20 00:54:09;;;;;;;81.15;26.73;;;;;;;;;;5000239;28;20037;-80
2022/12/20 00:56:34;;;;;;;83.88;29.27;;;;;;;;;;5000434;28;20052;-79
2022/12/20 00:59:00;;;;;;;82.30;29.27;;;;;;;;;;5016867;28;20034;-81
2022/12/20 01:01:27;;;;;;;80.38;27.20;;;;;;;;;;4999920;28;20029;-80
2022/12/20 01:03:53;;;;;;;82.95;26.80;;;;;;;;;;5017291;28;20033;-80
2022/12/20 01:06:18;;;;;;;78.30;28.58;;;;;;;;;;4983866;28;20038;-79
2022/12/20 01:08:44;;;;;;;86.07;30.05;;;;;;;;;;4999884;28;20122;-80
2022/12/20 01:11:15;;;;;;;88.68;32.17;;;;;;;;;;5017467;28;20030;-79
2022/12/20 01:13:42;;;;;;;82.88;26.88;;;;;;;;;;4983310;28;20053;-79
2022/12/20 01:16:22;;;;;;;77.65;25.40;;;;;;;;;;5017060;28;20040;-80
2022/12/20 01:18:47;;;;;;;75.55;25.55;;;;;;;;;;5015685;28;20053;-79
2022/12/20 01:21:14;;;;;;;72.43;22.38;;;;;;;;;;4983686;28;20414;-79
2022/12/20 01:23:39;;;;;;;42.33;15.13;;;;;;;;;;4967256;28;20036;-80
2022/12/20 01:26:08;;;;;;;90.63;27.48;;;;;;;;;;4999447;28;20031;-80
2022/12/20 01:28:33;;;;;;;78.25;27.98;;;;;;;;;;4999189;28;20117;-79
2022/12/20 01:30:59;;;;;;;76.72;27.45;;;;;;;;;;4998920;28;20117;-79
2022/12/20 01:33:24;;;;;;;58.97;20.98;;;;;;;;;;4999428;28;20110;-80
2022/12/20 01:36:00;;;;;;;82.93;27.60;;;;;;;;;;4998989;28;20028;-80
2022/12/20 01:38:26;;;;;;;67.03;24.45;;;;;;;;;;4966816;28;20038;-80
2022/12/20 01:40:52;;;;;;;73.40;26.42;;;;;;;;;;4982725;28;20477;-80
2022/12/20 01:43:17;;;;;;;74.25;25.92;;;;;;;;;;4999174;28;20462;-80
2022/12/20 01:45:43;;;;;;;74.82;24.63;;;;;;;;;;5016741;28;20398;-79
2022/12/20 01:48:08;;;;;;;58.97;20.48;;;;;;;;;;4999296;28;20387;-79
2022/12/20 01:50:34;;;;;;;67.05;23.23;;;;;;;;;;5016521;28;20030;-79
2022/12/20 01:53:01;;;;;;;67.97;23.58;;;;;;;;;;4983035;28;20026;-79
2022/12/20 01:55:26;;;;;;;71.65;25.48;;;;;;;;;;4983000;28;20036;-80
2022/12/20 01:58:04;;;;;;;66.65;23.40;;;;;;;;;;4999157;28;20030;-80
2022/12/20 02:00:30;;;;;;;73.28;24.33;;;;;;;;;;4984006;28;20038;-79
2022/12/20 02:02:58;;;;;;;54.75;19.95;;;;;;;;;;5016255;28;20030;-80
2022/12/20 02:05:23;;;;;;;71.32;21.92;;;;;;;;;;4982587;28;20460;-80
2022/12/20 02:07:51;;;;;;;68.03;22.30;;;;;;;;;;5015823;28;20135;-79
2022/12/20 02:10:17;;;;;;;63.75;21.10;;;;;;;;;;4982912;28;20038;-80
2022/12/20 02:12:44;;;;;;;62.63;17.85;;;;;;;;;;4998585;28;20033;-80
2022/12/20 02:15:31;;;;;;;60.28;22.05;;;;;;;;;;4982607;28;20034;-80
2022/12/20 02:18:05;;;;;;;57.65;20.17;;;;;;;;;;4983174;28;20461;-80
2022/12/20 02:20:52;;;;;;;66.07;21.73;;;;;;;;;;5015726;28;20034;-80
2022/12/20 02:23:54;;;;;;;55.30;19.58;;;;;;;;;;5030569;28;20033;-79
2022/12/20 02:26:42;;;;;;;68.22;23.92;;;;;;;;;;5037971;28;20033;-80
2022/12/20 02:29:34;;;;;;;63.38;23.67;;;;;;;;;;5051005;28;20048;-80
2022/12/20 02:32:07;;;;;;;63.90;21.83;;;;;;;;;;5035161;28;20060;-79
2022/12/20 02:34:34;;;;;;;72.00;23.38;;;;;;;;;;5018759;28;20025;-79
2022/12/20 02:37:00;;;;;;;65.32;22.38;;;;;;;;;;5001484;28;20453;-79
2022/12/20 02:39:26;;;;;;;55.08;19.77;;;;;;;;;;5001789;28;20025;-79
2022/12/20 02:41:57;;;;;;;64.65;22.67;;;;;;;;;;5016716;28;20038;-81
2022/12/20 02:47:11;;;;;;;78.05;29.50;;;;;;;;;;5006455;28;20377;-79
2022/12/20 02:49:40;;;;;;;46.40;13.88;;;;;;;;;;4985204;28;20029;-80
2022/12/20 02:52:07;;;;;;;66.38;23.92;;;;;;;;;;5034974;28;20033;-81
2022/12/20 02:54:32;;;;;;;79.07;27.83;;;;;;;;;;5033896;28;20029;-80
2022/12/20 02:57:20;;;;;;;72.28;26.33;;;;;;;;;;5001211;28;20028;-80
2022/12/20 02:59:56;;;;;;;69.95;24.33;;;;;;;;;;5003419;28;20344;-80
2022/12/20 03:02:22;;;;;;;70.22;24.75;;;;;;;;;;5000888;28;20029;-79
2022/12/20 03:04:48;;;;;;;63.35;21.38;;;;;;;;;;5001021;28;20447;-80
2022/12/20 03:07:13;;;;;;;74.25;23.83;;;;;;;;;;4984638;28;20060;-81
2022/12/20 03:09:40;;;;;;;62.45;24.10;;;;;;;;;;4984105;28;20037;-79
2022/12/20 03:12:06;;;;;;;73.90;25.58;;;;;;;;;;5033283;28;20102;-80
2022/12/20 03:14:32;;;;;;;62.83;21.30;;;;;;;;;;5016869;28;20041;-80
2022/12/20 03:16:57;;;;;;;62.65;19.33;;;;;;;;;;5037111;28;20335;-79
2022/12/20 03:19:23;;;;;;;69.30;23.25;;;;;;;;;;5037922;28;20062;-79
2022/12/20 03:21:48;;;;;;;62.55;22.85;;;;;;;;;;5016736;28;20037;-79
2022/12/20 03:24:14;;;;;;;77.05;26.73;;;;;;;;;;5028048;28;20032;-79
2022/12/20 03:26:39;;;;;;;68.63;23.75;;;;;;;;;;5029427;28;20124;-80
2022/12/20 03:29:05;;;;;;;68.57;25.77;;;;;;;;;;5034527;28;20120;-80
2022/12/20 03:31:31;;;;;;;58.90;21.90;;;;;;;;;;5034860;28;20051;-79
2022/12/20 03:33:56;;;;;;;79.35;24.83;;;;;;;;;;5034636;28;20025;-79
2022/12/20 03:36:22;;;;;;;41.85;14.88;;;;;;;;;;5016832;28;20041;-79
2022/12/20 03:38:49;;;;;;;44.65;16.58;;;;;;;;;;5016367;28;20059;-79
2022/12/20 03:41:15;;;;;;;53.05;18.17;;;;;;;;;;5000018;28;20033;-80
2022/12/20 03:43:40;;;;;;;66.05;20.77;;;;;;;;;;4999993;28;20044;-80
2022/12/20 03:46:05;;;;;;;76.38;27.15;;;;;;;;;;5033944;28;20374;-79
2022/12/20 03:48:31;;;;;;;63.45;22.15;;;;;;;;;;5033956;28;20535;-80
2022/12/20 03:50:56;;;;;;;67.57;22.25;;;;;;;;;;5000055;28;20128;-80
2022/12/20 03:53:22;;;;;;;66.65;21.92;;;;;;;;;;5033569;28;20167;-79
2022/12/20 03:55:47;;;;;;;67.28;22.65;;;;;;;;;;5033895;28;20030;-80
2022/12/20 03:58:12;;;;;;;52.35;19.13;;;;;;;;;;5032888;28;20026;-81
2022/12/20 04:00:38;;;;;;;72.30;24.58;;;;;;;;;;5034656;28;20029;-79
2022/12/20 04:03:03;;;;;;;74.15;28.20;;;;;;;;;;5037856;28;20438;-79
2022/12/20 04:05:29;;;;;;;60.63;19.98;;;;;;;;;;5022490;28;20446;-79
2022/12/20 04:07:54;;;;;;;58.92;19.60;;;;;;;;;;5021545;28;20050;-80
2022/12/20 04:10:20;;;;;;;51.55;18.95;;;;;;;;;;5034935;28;20045;-80
2022/12/20 04:12:45;;;;;;;70.90;25.15;;;;;;;;;;5034018;28;20044;-80
2022/12/20 04:15:10;;;;;;;72.28;26.55;;;;;;;;;;5032639;28;20112;-79
2022/12/20 04:17:36;;;;;;;58.72;19.33;;;;;;;;;;5034090;28;20057;-79
2022/12/20 04:20:17;;;;;;;51.45;18.42;;;;;;;;;;5034025;28;20042;-80
2022/12/20 04:22:45;;;;;;;57.50;18.60;;;;;;;;;;5032570;28;20044;-79
2022/12/20 04:25:10;;;;;;;64.95;21.42;;;;;;;;;;5015790;28;20127;-80
2022/12/20 04:27:36;;;;;;;52.05;19.83;;;;;;;;;;5029531;28;20188;-79
2022/12/20 04:30:01;;;;;;;67.25;23.38;;;;;;;;;;5033727;28;20025;-79
2022/12/20 04:32:26;;;;;;;39.75;13.32;;;;;;;;;;5016244;28;20094;-79
2022/12/20 04:34:52;;;;;;;61.25;19.55;;;;;;;;;;5016338;28;20029;-79
2022/12/20 04:37:17;;;;;;;55.08;16.90;;;;;;;;;;4983441;28;20045;-79
2022/12/20 04:39:43;;;;;;;61.55;19.65;;;;;;;;;;5015772;28;20034;-79
2022/12/20 04:42:08;;;;;;;66.05;24.00;;;;;;;;;;5033449;28;20067;-79
2022/12/20 04:44:33;;;;;;;63.80;22.73;;;;;;;;;;5015831;28;20165;-79
2022/12/20 04:46:59;;;;;;;65.47;23.88;;;;;;;;;;4999719;28;20178;-79
2022/12/20 04:49:25;;;;;;;51.00;18.55;;;;;;;;;;5037382;28;20053;-80
2022/12/20 04:51:50;;;;;;;59.50;21.05;;;;;;;;;;5017053;28;20037;-79
2022/12/20 04:54:16;;;;;;;57.58;18.95;;;;;;;;;;5016006;28;20047;-79
2022/12/20 04:56:41;;;;;;;47.63;14.93;;;;;;;;;;5033914;28;20026;-79
2022/12/20 04:59:07;;;;;;;51.15;17.92;;;;;;;;;;5033473;28;20139;-79
2022/12/20 05:01:32;;;;;;;52.58;18.67;;;;;;;;;;5015677;28;20516;-80
2022/12/20 05:03:58;;;;;;;56.53;17.80;;;;;;;;;;5033425;28;20037;-78
2022/12/20 05:06:23;;;;;;;61.63;21.30;;;;;;;;;;5000765;28;20041;-79
2022/12/20 05:08:48;;;;;;;56.67;19.80;;;;;;;;;;5037142;28;20034;-80
2022/12/20 05:11:14;;;;;;;60.30;21.77;;;;;;;;;;5037123;28;20052;-80
2022/12/20 05:13:40;;;;;;;48.58;17.75;;;;;;;;;;4995993;28;20041;-80
2022/12/20 05:16:05;;;;;;;62.88;21.33;;;;;;;;;;5036081;28;20726;-79
2022/12/20 05:18:31;;;;;;;60.25;18.85;;;;;;;;;;5019009;28;20417;-80
2022/12/20 05:26:27;;;;;;;57.13;18.35;;;;;;;;;;5034900;28;20029;-80
2022/12/20 05:28:52;;;;;;;57.53;21.45;;;;;;;;;;5002482;28;20042;-79
2022/12/20 05:31:18;;;;;;;58.45;20.02;;;;;;;;;;5018911;28;20033;-79
2022/12/20 05:33:44;;;;;;;47.97;17.38;;;;;;;;;;5018505;28;20071;-80
2022/12/20 05:36:09;;;;;;;58.55;18.38;;;;;;;;;;5018872;28;20073;-80
2022/12/20 05:38:35;;;;;;;66.55;21.73;;;;;;;;;;5036457;28;20478;-80
2022/12/20 05:41:01;;;;;;;15.35;8.02;;;;;;;;;;5018584;28;20029;-80
2022/12/20 05:43:26;;;;;;;54.88;19.13;;;;;;;;;;5035596;28;20161;-80
2022/12/20 05:45:52;;;;;;;56.03;18.13;;;;;;;;;;5034420;28;20027;-82
2022/12/20 05:48:19;;;;;;;63.03;19.20;;;;;;;;;;5016415;28;20190;-81
2022/12/20 05:50:44;;;;;;;58.92;22.58;;;;;;;;;;5038871;28;20104;-79
2022/12/20 05:53:25;;;;;;;74.03;28.05;;;;;;;;;;5027053;28;20107;-80
2022/12/20 05:55:51;;;;;;;58.60;19.30;;;;;;;;;;5023857;28;20029;-79
2022/12/20 05:58:17;;;;;;;52.67;18.77;;;;;;;;;;4978322;28;20277;-81
2022/12/20 06:00:43;;;;;;;51.78;16.55;;;;;;;;;;5031953;28;20345;-80
2022/12/20 06:03:08;;;;;;;53.50;19.50;;;;;;;;;;5011693;28;20049;-79
2022/12/20 06:05:37;;;;;;;57.28;20.40;;;;;;;;;;5014200;28;20041;-80
2022/12/20 06:08:04;;;;;;;42.38;16.17;;;;;;;;;;5033702;28;20049;-78
2022/12/20 06:10:30;;;;;;;62.78;21.02;;;;;;;;;;5014760;28;20080;-79
2022/12/20 06:12:56;;;;;;;63.75;22.88;;;;;;;;;;4997149;28;20123;-80
2022/12/20 06:15:21;;;;;;;68.88;23.00;;;;;;;;;;5013655;28;20069;-80
2022/12/20 06:17:47;;;;;;;59.05;19.95;;;;;;;;;;5028586;28;20041;-80
2022/12/20 06:20:15;;;;;;;36.30;14.13;;;;;;;;;;5031691;28;20030;-80
2022/12/20 06:22:41;;;;;;;57.42;22.23;;;;;;;;;;5029229;28;20493;-80
2022/12/20 06:25:08;;;;;;;51.90;17.67;;;;;;;;;;5031035;28;20030;-79
2022/12/20 06:27:35;;;;;;;60.65;19.63;;;;;;;;;;5031354;28;20028;-80
2022/12/20 06:30:59;;;;;;;57.58;19.35;;;;;;;;;;5012776;28;20033;-81
2022/12/20 06:33:24;;;;;;;55.60;19.10;;;;;;;;;;4923035;29;20039;-79
2022/12/20 06:35:50;;;;;;;48.35;14.70;;;;;;;;;;4933624;29;20038;-79
2022/12/20 06:38:15;;;;;;;47.50;17.65;;;;;;;;;;4981356;28;20049;-79
2022/12/20 06:40:41;;;;;;;53.53;18.35;;;;;;;;;;5034210;28;20121;-79
2022/12/20 06:43:07;;;;;;;56.45;18.20;;;;;;;;;;5000612;28;20034;-79
2022/12/20 06:45:33;;;;;;;55.30;19.48;;;;;;;;;;5027146;28;20116;-80
2022/12/20 06:47:59;;;;;;;58.67;20.83;;;;;;;;;;5014997;28;20032;-81
2022/12/20 06:50:26;;;;;;;52.90;20.92;;;;;;;;;;5031909;28;20033;-79
2022/12/20 06:52:53;;;;;;;53.90;20.33;;;;;;;;;;5003226;28;20424;-80
2022/12/20 06:55:18;;;;;;;56.60;18.15;;;;;;;;;;5025864;28;20037;-80
2022/12/20 06:57:43;;;;;;;62.30;18.77;;;;;;;;;;5027694;28;20041;-80
2022/12/20 07:00:12;;;;;;;55.28;16.90;;;;;;;;;;5024136;28;20087;-79
2022/12/20 07:02:37;;;;;;;47.97;17.38;;;;;;;;;;5029072;28;20080;-80
2022/12/20 07:05:06;;;;;;;65.35;21.90;;;;;;;;;;5030037;28;20037;-80
2022/12/20 07:07:32;;;;;;;56.55;19.23;;;;;;;;;;4993874;28;20033;-83
2022/12/20 07:09:58;;;;;;;62.17;23.13;;;;;;;;;;5032107;28;20029;-78
2022/12/20 07:12:23;;;;;;;65.97;23.85;;;;;;;;;;5028629;28;20025;-81
2022/12/20 07:14:50;;;;;;;57.00;18.40;;;;;;;;;;5012598;28;20033;-81
2022/12/20 07:17:16;;;;;;;56.15;20.35;;;;;;;;;;5026605;28;20025;-78
2022/12/20 07:19:42;;;;;;;36.80;14.15;;;;;;;;;;5029056;28;20087;-77
2022/12/20 07:22:12;;;;;;;59.50;19.50;;;;;;;;;;5027556;28;20037;-76
2022/12/20 07:24:38;;;;;;;52.92;18.98;;;;;;;;;;5012268;28;20095;-77
2022/12/20 07:27:16;;;;;;;58.90;18.88;;;;;;;;;;4996218;28;20049;-76
2022/12/20 07:29:42;;;;;;;52.30;19.33;;;;;;;;;;4979194;28;20045;-77
2022/12/20 07:32:07;;;;;;;54.42;18.55;;;;;;;;;;5020909;28;20087;-78
2022/12/20 07:34:32;;;;;;;36.90;15.40;;;;;;;;;;5015107;28;20052;-78
2022/12/20 07:36:58;;;;;;;55.47;19.60;;;;;;;;;;4982236;28;20021;-79
2022/12/20 07:39:26;;;;;;;63.35;22.92;;;;;;;;;;5011208;28;20033;-80
2022/12/20 07:42:00;;;;;;;58.70;21.00;;;;;;;;;;5012141;28;20025;-77
2022/12/20 07:47:42;;;;;;;56.70;19.42;;;;;;;;;;4989001;28;20109;-78
2022/12/20 07:50:08;;;;;;;38.65;14.10;;;;;;;;;;5015619;28;20025;-78
2022/12/20 07:52:42;;;;;;;54.72;20.33;;;;;;;;;;5009536;28;20433;-77
2022/12/20 07:55:09;;;;;;;48.35;17.15;;;;;;;;;;5013117;28;20041;-80
2022/12/20 07:57:41;;;;;;;56.60;19.35;;;;;;;;;;5044549;28;20060;-78
2022/12/20 08:00:07;;;;;;;59.17;21.23;;;;;;;;;;5044372;28;20103;-76
2022/12/20 08:02:39;;;;;;;51.00;16.77;;;;;;;;;;5029094;28;20477;-79
2022/12/20 08:05:05;;;;;;;39.70;14.60;;;;;;;;;;5011149;28;20033;-78
2022/12/20 08:07:31;;;;;;;52.03;17.17;;;;;;;;;;5045195;28;20053;-78
2022/12/20 08:09:57;;;;;;;46.33;17.80;;;;;;;;;;5045757;28;20033;-78
2022/12/20 08:12:22;;;;;;;55.35;19.45;;;;;;;;;;5030305;28;20025;-79
2022/12/20 08:14:51;;;;;;;36.80;14.43;;;;;;;;;;5047379;28;20044;-78
2022/12/20 08:17:19;;;;;;;56.03;21.08;;;;;;;;;;5015834;28;20038;-79
2022/12/20 08:19:47;;;;;;;55.67;18.35;;;;;;;;;;5015786;28;20064;-78
2022/12/20 08:22:13;;;;;;;51.42;19.10;;;;;;;;;;5031940;28;20065;-77
2022/12/20 08:24:42;;;;;;;50.08;16.33;;;;;;;;;;5032083;28;20072;-79
2022/12/20 08:27:07;;;;;;;46.72;18.02;;;;;;;;;;5034452;28;20071;-79
2022/12/20 08:29:33;;;;;;;59.45;22.75;;;;;;;;;;5033510;28;20030;-79
2022/12/20 08:31:58;;;;;;;52.65;18.60;;;;;;;;;;5014110;28;20017;-78
2022/12/20 08:34:23;;;;;;;48.42;16.48;;;;;;;;;;5032765;28;20185;-78
2022/12/20 08:36:49;;;;;;;45.90;16.05;;;;;;;;;;5030728;28;20061;-76
2022/12/20 08:39:15;;;;;;;42.28;15.57;;;;;;;;;;4995416;28;20079;-80
2022/12/20 08:41:40;;;;;;;54.55;17.90;;;;;;;;;;5031381;28;20033;-78
2022/12/20 08:44:05;;;;;;;51.28;17.90;;;;;;;;;;5034161;28;20440;-77
2022/12/20 08:46:31;;;;;;;50.63;18.20;;;;;;;;;;4999184;28;20072;-77
2022/12/20 08:48:56;;;;;;;55.58;17.95;;;;;;;;;;5013075;28;20037;-79
2022/12/20 08:51:28;;;;;;;55.13;20.90;;;;;;;;;;5015827;28;20037;-78
2022/12/20 08:53:54;;;;;;;52.33;18.77;;;;;;;;;;5018232;28;21922;-78
2022/12/20 08:56:20;;;;;;;56.65;18.50;;;;;;;;;;5039161;28;20037;-78
2022/12/20 08:58:46;;;;;;;50.83;20.27;;;;;;;;;;5025505;28;20075;-76
2022/12/20 09:01:13;;;;;;;50.45;17.77;;;;;;;;;;5007442;28;20426;-77
2022/12/20 09:03:39;;;;;;;57.78;21.02;;;;;;;;;;5008442;28;20041;-79
2022/12/20 09:06:09;;;;;;;47.95;18.38;;;;;;;;;;5013508;28;20056;-76
2022/12/20 09:08:35;;;;;;;63.10;21.88;;;;;;;;;;4997725;28;20029;-80
2022/12/20 09:11:13;;;;;;;55.30;20.25;;;;;;;;;;5031015;28;20453;-78
2022/12/20 09:13:40;;;;;;;60.35;20.92;;;;;;;;;;5019964;28;20026;-79
2022/12/20 09:16:05;;;;;;;60.53;21.48;;;;;;;;;;5009702;28;20113;-78
2022/12/20 09:18:31;;;;;;;52.80;19.13;;;;;;;;;;5026788;28;20069;-78
2022/12/20 09:21:00;;;;;;;54.75;18.75;;;;;;;;;;5024329;28;20036;-78
2022/12/20 09:23:26;;;;;;;60.85;20.17;;;;;;;;;;5023337;28;20095;-78
2022/12/20 09:25:52;;;;;;;58.38;18.38;;;;;;;;;;5037772;28;20057;-76
2022/12/20 09:28:18;;;;;;;48.92;17.13;;;;;;;;;;5034580;28;20488;-76
2022/12/20 09:31:11;;;;;;;46.35;16.67;;;;;;;;;;5023115;28;20068;-78
2022/12/20 09:33:37;;;;;;;56.05;19.17;;;;;;;;;;5020428;28;20044;-77
2022/12/20 09:36:03;;;;;;;50.25;19.48;;;;;;;;;;4987077;28;20041;-78
2022/12/20 09:41:43;;;;;;;57.05;19.67;;;;;;;;;;5028962;22;20104;-77
2022/12/20 09:44:16;;;;;;;58.90;19.17;;;;;;;;;;4995326;28;20450;-78
2022/12/20 09:46:43;;;;;;;64.28;23.75;;;;;;;;;;5032231;28;20350;-77
2022/12/20 09:49:14;;;;;;;43.85;15.55;;;;;;;;;;5029981;28;20121;-77
2022/12/20 09:52:24;;;;;;;50.28;17.88;;;;;;;;;;5015295;28;20355;-78
2022/12/20 09:55:11;;;;;;;48.53;17.30;;;;;;;;;;4978031;28;20607;-78
2022/12/20 09:57:54;;;;;;;57.80;18.50;;;;;;;;;;5013539;28;20030;-77
2022/12/20 10:00:20;;;;;;;48.78;17.70;;;;;;;;;;5018466;28;20037;-77
2022/12/20 10:02:46;;;;;;;47.15;17.75;;;;;;;;;;5016516;28;20414;-78
2022/12/20 10:05:45;;;;;;;54.80;19.33;;;;;;;;;;5018942;28;20352;-79
2022/12/20 10:08:30;;;;;;;50.88;19.17;;;;;;;;;;4999024;28;20041;-77
2022/12/20 10:10:58;;;;;;;59.40;20.30;;;;;;;;;;5024746;28;20053;-78
2022/12/20 10:13:42;;;;;;;45.90;17.27;;;;;;;;;;4983579;28;20083;-78
2022/12/20 10:16:27;;;;;;;50.55;17.13;;;;;;;;;;5014915;28;20348;-77
2022/12/20 10:18:53;;;;;;;46.47;17.40;;;;;;;;;;5014055;28;20038;-78
2022/12/20 10:21:50;;;;;;;52.05;18.95;;;;;;;;;;5013084;28;20452;-78
2022/12/20 10:24:29;;;;;;;48.85;18.02;;;;;;;;;;5013246;28;20037;-77
2022/12/20 10:26:54;;;;;;;43.05;18.70;;;;;;;;;;4982016;28;20139;-77
2022/12/20 10:29:20;;;;;;;51.35;19.67;;;;;;;;;;4980296;28;20128;-77
2022/12/20 10:31:48;;;;;;;56.00;20.10;;;;;;;;;;4997166;28;20076;-76
2022/12/20 10:34:14;;;;;;;62.28;18.70;;;;;;;;;;4997741;28;20029;-78
2022/12/20 10:36:42;;;;;;;57.75;19.10;;;;;;;;;;5015888;28;20037;-78
2022/12/20 10:40:00;;;;;;;51.22;19.42;;;;;;;;;;4963327;28;20042;-78
2022/12/20 10:48:29;;;;;;;45.05;16.52;;;;;;;;;;5052329;22;20066;-77
2022/12/20 11:09:37;;;;;;;39.60;15.20;;;;;;;;;;4211512;26;20047;-80
2022/12/20 11:12:18;;;;;;;40.63;15.75;;;;;;;;;;5070592;28;20085;-80
2022/12/20 11:14:44;;;;;;;;;;;;;;;;;;5068551;28;20119;-79
2022/12/20 11:17:39;;;;;;;39.13;14.88;;;;;;;;;;5033451;28;20015;-80
2022/12/20 11:20:30;;;;;;;41.08;15.27;;;;;;;;;;5035245;28;20116;-78
2022/12/20 11:23:14;;;;;;;;;;;;;;;;;;5055133;28;20040;-77
2022/12/20 11:29:41;;;;;;;46.38;15.85;;;;;;;;;;5074783;22;20047;-78
2022/12/20 11:32:28;;;;;;;41.65;15.52;;;;;;;;;;5037509;28;20031;-78
2022/12/20 11:35:17;;;;;;;46.70;16.33;;;;;;;;;;5071034;28;20107;-79
2022/12/20 11:38:08;;;;;;;43.55;15.85;;;;;;;;;;5043719;28;20418;-78
2022/12/20 11:40:47;;;;;;;52.33;18.13;;;;;;;;;;5035146;28;20032;-79
2022/12/20 11:43:45;;;;;;;43.53;16.85;;;;;;;;;;5055160;28;20385;-78
2022/12/20 11:46:19;;;;;;;45.40;16.63;;;;;;;;;;5019135;28;20052;-78
2022/12/20 11:48:54;;;;;;;49.00;17.33;;;;;;;;;;5068295;28;20455;-78
2022/12/20 11:51:23;;;;;;;52.78;19.92;;;;;;;;;;5069605;28;20445;-79
2022/12/20 11:54:22;;;;;;;49.67;18.85;;;;;;;;;;5051007;28;20034;-81
2022/12/20 11:56:50;;;;;;;47.90;15.60;;;;;;;;;;5050625;28;20111;-78
2022/12/20 11:59:35;;;;;;;45.97;16.70;;;;;;;;;;5017731;28;20074;-80
2022/12/20 12:02:16;;;;;;;51.40;18.30;;;;;;;;;;5052256;28;20071;-80
2022/12/20 12:04:56;;;;;;;45.33;16.58;;;;;;;;;;5037390;28;20040;-79
2022/12/20 12:07:32;;;;;;;40.67;15.20;;;;;;;;;;5070423;28;20486;-81
2022/12/20 12:10:15;;;;;;;45.08;16.65;;;;;;;;;;5075522;28;20020;-79
2022/12/20 12:12:45;;;;;;;38.95;15.05;;;;;;;;;;5056599;28;20037;-80
2022/12/20 12:15:31;;;;;;;50.13;17.43;;;;;;;;;;5054653;28;20150;-80
2022/12/20 12:18:20;;;;;;;46.33;17.55;;;;;;;;;;5075845;28;20438;-81
2022/12/20 12:21:24;;;;;;;45.33;18.50;;;;;;;;;;5049861;28;20040;-79
2022/12/20 12:23:59;;;;;;;36.13;15.38;;;;;;;;;;5073033;28;20457;-79
2022/12/20 12:26:40;;;;;;;40.42;15.02;;;;;;;;;;5074541;28;20020;-80
2022/12/20 12:29:13;;;;;;;59.15;22.13;;;;;;;;;;5073964;28;20036;-79
2022/12/20 12:31:52;;;;;;;43.65;15.70;;;;;;;;;;5083847;28;20047;-80
2022/12/20 12:34:27;;;;;;;45.63;17.25;;;;;;;;;;5047987;28;20060;-79
2022/12/20 12:37:10;;;;;;;45.28;15.88;;;;;;;;;;5042057;28;20040;-80
2022/12/20 12:39:52;;;;;;;38.85;14.88;;;;;;;;;;5053780;28;20036;-78
2022/12/20 12:42:30;;;;;;;44.50;17.05;;;;;;;;;;5069492;28;20020;-77
2022/12/20 12:45:06;;;;;;;79.35;26.35;;;;;;;;;;5053818;28;20112;-80
2022/12/20 12:47:50;;;;;;;42.08;16.00;;;;;;;;;;5035944;28;20120;-79
2022/12/20 12:50:31;;;;;;;48.58;18.88;;;;;;;;;;5034184;28;20044;-77
2022/12/20 12:53:03;;;;;;;43.03;16.48;;;;;;;;;;5036308;28;20441;-79
2022/12/20 12:55:44;;;;;;;42.55;14.73;;;;;;;;;;5036488;28;20041;-79
2022/12/20 12:58:22;;;;;;;46.97;16.38;;;;;;;;;;5036717;28;20029;-79
2022/12/20 13:00:49;;;;;;;50.53;18.50;;;;;;;;;;5038096;28;20031;-80
2022/12/20 13:03:15;;;;;;;50.70;18.45;;;;;;;;;;5036995;28;20342;-79
2022/12/20 13:05:41;;;;;;;35.28;14.88;;;;;;;;;;5037457;28;20374;-79
2022/12/20 13:08:16;;;;;;;47.05;16.35;;;;;;;;;;5037360;28;20036;-79
2022/12/20 13:10:41;;;;;;;52.17;19.40;;;;;;;;;;5056575;28;20029;-80
2022/12/20 13:13:19;;;;;;;48.90;18.98;;;;;;;;;;5057095;28;20036;-80
2022/12/20 13:15:46;;;;;;;47.85;18.67;;;;;;;;;;5023764;28;20946;-80
2022/12/20 13:18:11;;;;;;;48.17;18.05;;;;;;;;;;5056428;28;20032;-79
2022/12/20 13:20:37;;;;;;;49.97;19.67;;;;;;;;;;5067071;28;20024;-79
2022/12/20 13:23:11;;;;;;;45.97;18.05;;;;;;;;;;5041632;28;20574;-79
2022/12/20 13:25:47;;;;;;;50.40;17.42;;;;;;;;;;5076300;28;20048;-79
2022/12/20 13:28:15;;;;;;;52.25;19.40;;;;;;;;;;5065121;28;20373;-79
2022/12/20 13:30:41;;;;;;;48.55;19.00;;;;;;;;;;5058242;28;20090;-78
2022/12/20 13:33:36;;;;;;;44.65;17.17;;;;;;;;;;5074692;28;20062;-78
2022/12/20 13:36:08;;;;;;;48.58;17.38;;;;;;;;;;5061249;28;20045;-78
2022/12/20 13:38:52;;;;;;;41.65;16.10;;;;;;;;;;5059514;28;20032;-78
2022/12/20 13:41:40;;;;;;;43.50;15.70;;;;;;;;;;5075432;28;20392;-79
2022/12/20 13:44:14;;;;;;;41.38;14.77;;;;;;;;;;5057111;28;20032;-78
2022/12/20 13:46:46;;;;;;;42.72;15.13;;;;;;;;;;5055744;28;20036;-79
2022/12/20 13:49:38;;;;;;;40.90;15.88;;;;;;;;;;5039264;28;20127;-78
2022/12/20 13:52:26;;;;;;;41.63;16.15;;;;;;;;;;5058996;28;20157;-78
2022/12/20 13:54:54;;;;;;;43.15;15.57;;;;;;;;;;5056580;28;20405;-78
2022/12/20 13:57:41;;;;;;;42.38;15.43;;;;;;;;;;5057162;28;20024;-79
2022/12/20 14:00:17;;;;;;;40.72;15.98;;;;;;;;;;5056430;28;20029;-79
2022/12/20 14:02:42;;;;;;;33.60;14.02;;;;;;;;;;5041111;28;20032;-78
2022/12/20 14:05:25;;;;;;;42.72;16.00;;;;;;;;;;5025228;28;20027;-78
2022/12/20 14:08:01;;;;;;;42.10;14.77;;;;;;;;;;5074623;28;20082;-79
2022/12/20 14:10:27;;;;;;;44.97;17.13;;;;;;;;;;5091682;28;20146;-78
2022/12/20 14:12:54;;;;;;;40.92;15.15;;;;;;;;;;5041384;28;20024;-79
2022/12/20 14:15:22;;;;;;;38.08;14.80;;;;;;;;;;5041307;28;20021;-79
2022/12/20 14:17:48;;;;;;;43.50;16.00;;;;;;;;;;5075767;28;20036;-78
2022/12/20 14:20:36;;;;;;;38.75;13.65;;;;;;;;;;5076609;28;20078;-78
2022/12/20 14:23:10;;;;;;;41.05;14.30;;;;;;;;;;5033065;28;20474;-78
2022/12/20 14:25:42;;;;;;;40.40;14.85;;;;;;;;;;5041645;28;20090;-80
2022/12/20 14:28:37;;;;;;;62.97;23.13;;;;;;;;;;5058600;28;20389;-80
2022/12/20 14:31:04;;;;;;;47.75;15.55;;;;;;;;;;5060502;28;20051;-77
2022/12/20 14:33:37;;;;;;;44.83;17.00;;;;;;;;;;5071095;28;20037;-78
2022/12/20 14:36:20;;;;;;;45.00;16.70;;;;;;;;;;5048206;28;20091;-79
2022/12/20 14:38:47;;;;;;;43.97;17.75;;;;;;;;;;5040463;28;20402;-78
2022/12/20 14:41:29;;;;;;;48.58;17.70;;;;;;;;;;5075662;28;20416;-78
2022/12/20 14:43:55;;;;;;;59.25;20.65;;;;;;;;;;5074954;28;20135;-78
2022/12/20 14:46:21;;;;;;;59.97;20.58;;;;;;;;;;5090722;28;20036;-78
2022/12/20 14:48:47;;;;;;;58.83;20.08;;;;;;;;;;5057602;28;20039;-78
2022/12/20 14:51:17;;;;;;;51.28;20.23;;;;;;;;;;5057163;28;20432;-78
2022/12/20 14:53:43;;;;;;;58.72;21.52;;;;;;;;;;5041313;28;20093;-78
2022/12/20 14:56:17;;;;;;;42.13;16.63;;;;;;;;;;5040840;28;20028;-79
2022/12/20 14:58:42;;;;;;;60.92;23.25;;;;;;;;;;5040454;28;20044;-78
2022/12/20 15:01:14;;;;;;;47.42;17.42;;;;;;;;;;5040226;28;20040;-78
2022/12/20 15:03:50;;;;;;;50.00;17.77;;;;;;;;;;5074872;28;20365;-78
2022/12/20 15:06:40;;;;;;;47.72;18.25;;;;;;;;;;5073923;28;20032;-78
2022/12/20 15:09:05;;;;;;;42.22;15.15;;;;;;;;;;5074273;28;20020;-78
2022/12/20 15:11:31;;;;;;;44.65;16.30;;;;;;;;;;5057011;28;20029;-78
2022/12/20 15:13:57;;;;;;;31.13;11.30;;;;;;;;;;5039674;28;20028;-78
2022/12/20 15:16:29;;;;;;;41.30;16.00;;;;;;;;;;5056612;28;20024;-78
2022/12/20 15:19:00;;;;;;;40.58;14.30;;;;;;;;;;5072816;28;20380;-78
2022/12/20 15:21:52;;;;;;;41.78;14.25;;;;;;;;;;5057045;28;20031;-79